sensor_id;sensor_type;location;lat;lon;timestamp;pressure;altitude;pressure_sealevel;temperature;humidity
35694;BME280;21812;55.536;37.664;2023-10-31T00:01:45;99068.41;;;8.40;91.36
35694;BME280;21812;55.536;37.664;2023-10-31T00:04:11;99065.13;;;8.38;91.52
35694;BME280;21812;55.536;37.664;2023-10-31T00:06:37;99067.97;;;8.37;91.62
35694;BME280;21812;55.536;37.664;2023-10-31T00:09:02;99070.19;;;8.33;91.48
35694;BME280;21812;55.536;37.664;2023-10-31T00:11:28;99078.97;;;8.34;92.19
35694;BME280;21812;55.536;37.664;2023-10-31T00:13:54;99067.97;;;8.37;92.47
35694;BME280;21812;55.536;37.664;2023-10-31T00:16:20;99061.03;;;8.36;92.11
35694;BME280;21812;55.536;37.664;2023-10-31T00:18:45;99063.63;;;8.29;91.50
35694;BME280;21812;55.536;37.664;2023-10-31T00:21:11;99065.81;;;8.26;91.61
35694;BME280;21812;55.536;37.664;2023-10-31T00:23:47;99067.03;;;8.23;91.65
35694;BME280;21812;55.536;37.664;2023-10-31T00:26:12;99070.00;;;8.35;91.73
35694;BME280;21812;55.536;37.664;2023-10-31T00:28:43;99073.09;;;8.38;91.33
35694;BME280;21812;55.536;37.664;2023-10-31T00:31:08;99079.66;;;8.36;91.03
35694;BME280;21812;55.536;37.664;2023-10-31T00:33:40;99088.81;;;8.33;90.85
35694;BME280;21812;55.536;37.664;2023-10-31T00:36:07;99096.78;;;8.33;90.60
35694;BME280;21812;55.536;37.664;2023-10-31T00:38:33;99093.69;;;8.30;90.59
35694;BME280;21812;55.536;37.664;2023-10-31T00:41:00;99095.72;;;8.28;90.64
35694;BME280;21812;55.536;37.664;2023-10-31T00:43:26;99099.00;;;8.30;90.79
35694;BME280;21812;55.536;37.664;2023-10-31T00:45:51;99108.81;;;8.29;90.70
35694;BME280;21812;55.536;37.664;2023-10-31T00:48:18;99106.34;;;8.28;90.43
35694;BME280;21812;55.536;37.664;2023-10-31T00:50:44;99107.19;;;8.28;90.40
35694;BME280;21812;55.536;37.664;2023-10-31T00:53:10;99098.00;;;8.31;90.68
35694;BME280;21812;55.536;37.664;2023-10-31T00:55:36;99105.66;;;8.40;90.47
35694;BME280;21812;55.536;37.664;2023-10-31T00:58:03;99106.88;;;8.38;89.90
35694;BME280;21812;55.536;37.664;2023-10-31T01:00:28;99104.78;;;8.33;89.85
35694;BME280;21812;55.536;37.664;2023-10-31T01:02:55;99119.91;;;8.33;89.86
35694;BME280;21812;55.536;37.664;2023-10-31T01:05:21;99121.63;;;8.40;90.03
35694;BME280;21812;55.536;37.664;2023-10-31T01:07:47;99119.44;;;8.44;90.07
35694;BME280;21812;55.536;37.664;2023-10-31T01:10:13;99127.69;;;8.49;89.74
35694;BME280;21812;55.536;37.664;2023-10-31T01:12:38;99123.19;;;8.50;89.66
35694;BME280;21812;55.536;37.664;2023-10-31T01:15:04;99125.41;;;8.46;89.29
35694;BME280;21812;55.536;37.664;2023-10-31T01:17:31;99127.41;;;8.44;89.30
35694;BME280;21812;55.536;37.664;2023-10-31T01:19:57;99118.81;;;8.42;89.18
35694;BME280;21812;55.536;37.664;2023-10-31T01:22:23;99129.47;;;8.42;89.18
35694;BME280;21812;55.536;37.664;2023-10-31T01:24:48;99132.13;;;8.42;89.29
35694;BME280;21812;55.536;37.664;2023-10-31T01:27:14;99130.59;;;8.39;89.47
35694;BME280;21812;55.536;37.664;2023-10-31T01:29:41;99136.41;;;8.43;89.74
35694;BME280;21812;55.536;37.664;2023-10-31T01:32:07;99138.69;;;8.46;89.94
35694;BME280;21812;55.536;37.664;2023-10-31T01:34:33;99149.16;;;8.48;89.57
35694;BME280;21812;55.536;37.664;2023-10-31T01:36:59;99149.97;;;8.48;89.40
35694;BME280;21812;55.536;37.664;2023-10-31T01:39:26;99160.81;;;8.47;89.49
35694;BME280;21812;55.536;37.664;2023-10-31T01:41:52;99158.13;;;8.47;89.34
35694;BME280;21812;55.536;37.664;2023-10-31T01:44:20;99162.66;;;8.46;89.52
35694;BME280;21812;55.536;37.664;2023-10-31T01:46:46;99158.59;;;8.50;89.30
35694;BME280;21812;55.536;37.664;2023-10-31T01:49:13;99151.03;;;8.54;89.65
35694;BME280;21812;55.536;37.664;2023-10-31T01:51:40;99164.81;;;8.57;89.29
35694;BME280;21812;55.536;37.664;2023-10-31T01:54:06;99166.44;;;8.58;89.42
35694;BME280;21812;55.536;37.664;2023-10-31T01:56:34;99171.75;;;8.58;88.83
35694;BME280;21812;55.536;37.664;2023-10-31T01:59:00;99168.72;;;8.61;88.67
35694;BME280;21812;55.536;37.664;2023-10-31T02:01:27;99172.97;;;8.56;87.89
35694;BME280;21812;55.536;37.664;2023-10-31T02:03:53;99189.38;;;8.59;86.76
35694;BME280;21812;55.536;37.664;2023-10-31T02:06:19;99188.25;;;8.69;87.51
35694;BME280;21812;55.536;37.664;2023-10-31T02:08:47;99199.44;;;8.64;86.48
35694;BME280;21812;55.536;37.664;2023-10-31T02:11:13;99197.00;;;8.63;86.56
35694;BME280;21812;55.536;37.664;2023-10-31T02:13:39;99195.16;;;8.63;85.39
35694;BME280;21812;55.536;37.664;2023-10-31T02:16:06;99205.81;;;8.63;85.03
35694;BME280;21812;55.536;37.664;2023-10-31T02:18:34;99212.38;;;8.67;84.33
35694;BME280;21812;55.536;37.664;2023-10-31T02:20:59;99207.81;;;8.61;83.61
35694;BME280;21812;55.536;37.664;2023-10-31T02:23:26;99208.00;;;8.59;83.62
35694;BME280;21812;55.536;37.664;2023-10-31T02:25:52;99219.28;;;8.61;83.27
35694;BME280;21812;55.536;37.664;2023-10-31T02:28:18;99227.00;;;8.56;82.51
35694;BME280;21812;55.536;37.664;2023-10-31T02:30:44;99227.41;;;8.53;82.45
35694;BME280;21812;55.536;37.664;2023-10-31T02:33:10;99219.16;;;8.48;82.23
35694;BME280;21812;55.536;37.664;2023-10-31T02:35:36;99224.47;;;8.48;82.34
35694;BME280;21812;55.536;37.664;2023-10-31T02:38:02;99228.22;;;8.39;81.86
35694;BME280;21812;55.536;37.664;2023-10-31T02:40:28;99235.41;;;8.38;81.85
35694;BME280;21812;55.536;37.664;2023-10-31T02:42:54;99239.91;;;8.38;81.85
35694;BME280;21812;55.536;37.664;2023-10-31T02:45:20;99238.88;;;8.39;81.69
35694;BME280;21812;55.536;37.664;2023-10-31T02:47:45;99244.00;;;8.40;81.38
35694;BME280;21812;55.536;37.664;2023-10-31T02:50:12;99249.19;;;8.42;81.10
35694;BME280;21812;55.536;37.664;2023-10-31T02:52:38;99252.00;;;8.40;80.87
35694;BME280;21812;55.536;37.664;2023-10-31T02:55:04;99254.31;;;8.44;81.18
35694;BME280;21812;55.536;37.664;2023-10-31T02:57:31;99254.66;;;8.40;80.31
35694;BME280;21812;55.536;37.664;2023-10-31T02:59:57;99258.78;;;8.43;80.51
35694;BME280;21812;55.536;37.664;2023-10-31T03:02:23;99258.06;;;8.49;81.17
35694;BME280;21812;55.536;37.664;2023-10-31T03:04:49;99262.47;;;8.42;80.67
35694;BME280;21812;55.536;37.664;2023-10-31T03:07:15;99272.81;;;8.37;80.57
35694;BME280;21812;55.536;37.664;2023-10-31T03:09:40;99279.53;;;8.33;80.28
35694;BME280;21812;55.536;37.664;2023-10-31T03:12:06;99284.59;;;8.43;80.61
35694;BME280;21812;55.536;37.664;2023-10-31T03:14:32;99285.94;;;8.53;81.27
35694;BME280;21812;55.536;37.664;2023-10-31T03:16:58;99272.25;;;8.56;80.59
35694;BME280;21812;55.536;37.664;2023-10-31T03:19:24;99278.22;;;8.58;80.34
35694;BME280;21812;55.536;37.664;2023-10-31T03:21:49;99272.41;;;8.70;80.69
35694;BME280;21812;55.536;37.664;2023-10-31T03:24:15;99282.03;;;8.92;80.80
35694;BME280;21812;55.536;37.664;2023-10-31T03:26:41;99274.94;;;8.99;79.24
35694;BME280;21812;55.536;37.664;2023-10-31T03:29:06;99283.88;;;9.13;80.47
35694;BME280;21812;55.536;37.664;2023-10-31T03:31:32;99280.59;;;9.11;79.41
35694;BME280;21812;55.536;37.664;2023-10-31T03:33:58;99287.19;;;9.15;78.97
35694;BME280;21812;55.536;37.664;2023-10-31T03:36:24;99287.00;;;9.17;78.35
35694;BME280;21812;55.536;37.664;2023-10-31T03:38:49;99299.31;;;9.18;77.82
35694;BME280;21812;55.536;37.664;2023-10-31T03:41:17;99297.66;;;9.17;78.82
35694;BME280;21812;55.536;37.664;2023-10-31T03:43:42;99299.31;;;9.18;80.32
35694;BME280;21812;55.536;37.664;2023-10-31T03:46:08;99296.06;;;9.23;80.41
35694;BME280;21812;55.536;37.664;2023-10-31T03:48:34;99303.88;;;9.24;80.83
35694;BME280;21812;55.536;37.664;2023-10-31T03:50:59;99307.22;;;9.11;79.47
35694;BME280;21812;55.536;37.664;2023-10-31T03:53:25;99305.81;;;9.15;81.29
35694;BME280;21812;55.536;37.664;2023-10-31T03:55:51;99306.78;;;9.29;82.25
35694;BME280;21812;55.536;37.664;2023-10-31T03:58:17;99312.16;;;9.36;80.53
35694;BME280;21812;55.536;37.664;2023-10-31T04:00:42;99310.09;;;9.31;78.62
35694;BME280;21812;55.536;37.664;2023-10-31T04:03:09;99309.22;;;9.31;80.32
35694;BME280;21812;55.536;37.664;2023-10-31T04:05:35;99321.22;;;9.42;81.79
35694;BME280;21812;55.536;37.664;2023-10-31T04:08:01;99313.38;;;9.33;80.57
35694;BME280;21812;55.536;37.664;2023-10-31T04:10:27;99319.53;;;9.34;80.67
35694;BME280;21812;55.536;37.664;2023-10-31T04:12:53;99327.69;;;9.32;80.53
35694;BME280;21812;55.536;37.664;2023-10-31T04:15:19;99321.22;;;9.42;81.22
35694;BME280;21812;55.536;37.664;2023-10-31T04:17:45;99329.47;;;9.47;80.87
35694;BME280;21812;55.536;37.664;2023-10-31T04:20:11;99333.41;;;9.51;80.72
35694;BME280;21812;55.536;37.664;2023-10-31T04:22:36;99332.00;;;9.55;81.47
35694;BME280;21812;55.536;37.664;2023-10-31T04:25:03;99342.56;;;9.70;83.27
35694;BME280;21812;55.536;37.664;2023-10-31T04:27:30;99330.13;;;10.12;82.90
35694;BME280;21812;55.536;37.664;2023-10-31T04:29:56;99335.31;;;10.62;80.98
35694;BME280;21812;55.536;37.664;2023-10-31T04:32:22;99330.34;;;11.20;81.43
35694;BME280;21812;55.536;37.664;2023-10-31T04:34:48;99335.06;;;11.38;78.93
35694;BME280;21812;55.536;37.664;2023-10-31T04:37:13;99338.16;;;11.68;74.02
35694;BME280;21812;55.536;37.664;2023-10-31T04:39:39;99337.16;;;11.43;70.61
35694;BME280;21812;55.536;37.664;2023-10-31T04:42:05;99338.06;;;10.82;70.91
35694;BME280;21812;55.536;37.664;2023-10-31T04:44:31;99337.69;;;10.36;72.48
35694;BME280;21812;55.536;37.664;2023-10-31T04:46:56;99354.97;;;10.12;74.26
35694;BME280;21812;55.536;37.664;2023-10-31T04:49:22;99350.94;;;9.95;77.27
35694;BME280;21812;55.536;37.664;2023-10-31T04:51:48;99346.84;;;9.92;78.89
35694;BME280;21812;55.536;37.664;2023-10-31T04:54:14;99348.28;;;9.95;79.71
35694;BME280;21812;55.536;37.664;2023-10-31T04:56:40;99365.31;;;9.94;79.90
35694;BME280;21812;55.536;37.664;2023-10-31T04:59:05;99359.31;;;9.85;79.35
35694;BME280;21812;55.536;37.664;2023-10-31T05:01:31;99365.41;;;9.79;79.83
35694;BME280;21812;55.536;37.664;2023-10-31T05:03:57;99371.09;;;9.69;80.44
35694;BME280;21812;55.536;37.664;2023-10-31T05:06:22;99370.06;;;9.70;80.64
35694;BME280;21812;55.536;37.664;2023-10-31T05:08:49;99365.25;;;9.59;78.39
35694;BME280;21812;55.536;37.664;2023-10-31T05:11:18;99373.00;;;9.54;77.19
35694;BME280;21812;55.536;37.664;2023-10-31T05:13:44;99384.22;;;9.49;77.27
35694;BME280;21812;55.536;37.664;2023-10-31T05:16:10;99386.44;;;9.46;77.53
35694;BME280;21812;55.536;37.664;2023-10-31T05:18:38;99394.41;;;9.39;77.86
35694;BME280;21812;55.536;37.664;2023-10-31T05:21:04;99398.69;;;9.40;77.55
35694;BME280;21812;55.536;37.664;2023-10-31T05:23:30;99400.81;;;9.45;77.80
35694;BME280;21812;55.536;37.664;2023-10-31T05:25:56;99390.97;;;9.45;77.23
35694;BME280;21812;55.536;37.664;2023-10-31T05:28:22;99392.63;;;9.46;77.70
35694;BME280;21812;55.536;37.664;2023-10-31T05:30:49;99394.94;;;9.34;76.88
35694;BME280;21812;55.536;37.664;2023-10-31T05:33:15;99388.63;;;9.14;76.91
35694;BME280;21812;55.536;37.664;2023-10-31T05:35:42;99399.38;;;9.06;77.51
35694;BME280;21812;55.536;37.664;2023-10-31T05:38:08;99415.38;;;8.91;77.99
35694;BME280;21812;55.536;37.664;2023-10-31T05:40:34;99424.41;;;8.75;78.70
35694;BME280;21812;55.536;37.664;2023-10-31T05:43:03;99421.44;;;8.85;79.90
35694;BME280;21812;55.536;37.664;2023-10-31T05:45:30;99432.84;;;8.93;79.39
35694;BME280;21812;55.536;37.664;2023-10-31T05:47:56;99433.66;;;8.79;79.25
35694;BME280;21812;55.536;37.664;2023-10-31T05:50:22;99441.31;;;8.67;80.20
35694;BME280;21812;55.536;37.664;2023-10-31T05:52:48;99439.03;;;8.49;80.62
35694;BME280;21812;55.536;37.664;2023-10-31T05:55:14;99452.38;;;8.41;81.27
35694;BME280;21812;55.536;37.664;2023-10-31T05:57:41;99454.22;;;8.40;82.21
35694;BME280;21812;55.536;37.664;2023-10-31T06:00:07;99461.22;;;8.41;82.82
35694;BME280;21812;55.536;37.664;2023-10-31T06:02:38;99467.81;;;8.46;82.99
35694;BME280;21812;55.536;37.664;2023-10-31T06:05:04;99485.66;;;8.37;82.50
35694;BME280;21812;55.536;37.664;2023-10-31T06:07:30;99482.38;;;8.35;83.31
35694;BME280;21812;55.536;37.664;2023-10-31T06:09:56;99480.69;;;8.34;83.65
35694;BME280;21812;55.536;37.664;2023-10-31T06:12:22;99483.00;;;8.37;84.09
35694;BME280;21812;55.536;37.664;2023-10-31T06:14:48;99491.63;;;8.39;84.21
35694;BME280;21812;55.536;37.664;2023-10-31T06:17:13;99490.50;;;8.41;84.47
35694;BME280;21812;55.536;37.664;2023-10-31T06:19:39;99483.16;;;8.44;84.46
35694;BME280;21812;55.536;37.664;2023-10-31T06:22:11;99484.63;;;8.46;84.49
35694;BME280;21812;55.536;37.664;2023-10-31T06:24:37;99485.53;;;8.53;85.01
35694;BME280;21812;55.536;37.664;2023-10-31T06:27:03;99489.78;;;8.63;85.40
35694;BME280;21812;55.536;37.664;2023-10-31T06:29:29;99490.78;;;8.76;85.56
35694;BME280;21812;55.536;37.664;2023-10-31T06:31:54;99490.59;;;8.78;85.29
35694;BME280;21812;55.536;37.664;2023-10-31T06:34:20;99485.53;;;8.83;85.08
35694;BME280;21812;55.536;37.664;2023-10-31T06:36:46;99483.78;;;8.90;85.13
35694;BME280;21812;55.536;37.664;2023-10-31T06:39:11;99482.59;;;8.93;85.12
35694;BME280;21812;55.536;37.664;2023-10-31T06:41:37;99495.63;;;9.03;85.25
35694;BME280;21812;55.536;37.664;2023-10-31T06:44:03;99491.47;;;9.15;85.68
35694;BME280;21812;55.536;37.664;2023-10-31T06:46:29;99500.66;;;9.27;85.48
35694;BME280;21812;55.536;37.664;2023-10-31T06:48:55;99507.25;;;9.31;85.23
35694;BME280;21812;55.536;37.664;2023-10-31T06:51:20;99511.84;;;9.37;85.36
35694;BME280;21812;55.536;37.664;2023-10-31T06:53:46;99504.47;;;9.39;85.45
35694;BME280;21812;55.536;37.664;2023-10-31T06:56:12;99516.03;;;9.47;85.23
35694;BME280;21812;55.536;37.664;2023-10-31T06:58:37;99514.47;;;9.52;85.27
35694;BME280;21812;55.536;37.664;2023-10-31T07:01:03;99519.41;;;9.55;85.18
35694;BME280;21812;55.536;37.664;2023-10-31T07:03:29;99523.91;;;9.55;85.11
35694;BME280;21812;55.536;37.664;2023-10-31T07:05:55;99533.81;;;9.61;85.39
35694;BME280;21812;55.536;37.664;2023-10-31T07:08:22;99540.81;;;9.62;85.15
35694;BME280;21812;55.536;37.664;2023-10-31T07:10:48;99541.19;;;9.59;85.19
35694;BME280;21812;55.536;37.664;2023-10-31T07:13:13;99539.16;;;9.61;85.35
35694;BME280;21812;55.536;37.664;2023-10-31T07:15:39;99534.66;;;9.62;85.47
35694;BME280;21812;55.536;37.664;2023-10-31T07:18:06;99545.38;;;9.68;85.61
35694;BME280;21812;55.536;37.664;2023-10-31T07:20:34;99550.81;;;9.75;85.55
35694;BME280;21812;55.536;37.664;2023-10-31T07:23:00;99559.69;;;9.82;85.61
35694;BME280;21812;55.536;37.664;2023-10-31T07:25:26;99565.72;;;9.91;85.49
35694;BME280;21812;55.536;37.664;2023-10-31T07:27:51;99553.41;;;9.90;84.84
35694;BME280;21812;55.536;37.664;2023-10-31T07:30:17;99567.41;;;9.92;84.71
35694;BME280;21812;55.536;37.664;2023-10-31T07:32:43;99566.38;;;9.93;84.76
35694;BME280;21812;55.536;37.664;2023-10-31T07:35:08;99570.31;;;9.97;85.01
35694;BME280;21812;55.536;37.664;2023-10-31T07:37:34;99566.44;;;10.00;84.79
35694;BME280;21812;55.536;37.664;2023-10-31T07:40:00;99566.63;;;9.98;84.48
35694;BME280;21812;55.536;37.664;2023-10-31T07:42:26;99566.63;;;9.98;84.73
35694;BME280;21812;55.536;37.664;2023-10-31T07:44:52;99574.88;;;10.03;84.83
35694;BME280;21812;55.536;37.664;2023-10-31T07:47:17;99567.00;;;10.16;84.94
35694;BME280;21812;55.536;37.664;2023-10-31T07:49:43;99563.81;;;10.28;84.99
35694;BME280;21812;55.536;37.664;2023-10-31T07:52:09;99572.94;;;10.33;84.21
35694;BME280;21812;55.536;37.664;2023-10-31T07:54:35;99574.63;;;10.41;84.05
35694;BME280;21812;55.536;37.664;2023-10-31T07:57:04;99573.50;;;10.50;83.92
35694;BME280;21812;55.536;37.664;2023-10-31T07:59:33;99545.28;;;10.41;83.62
35694;BME280;21812;55.536;37.664;2023-10-31T08:01:59;99576.41;;;10.55;83.08
35694;BME280;21812;55.536;37.664;2023-10-31T08:04:24;99581.38;;;10.59;83.28
35694;BME280;21812;55.536;37.664;2023-10-31T08:06:50;99583.25;;;10.65;83.61
35694;BME280;21812;55.536;37.664;2023-10-31T08:09:16;99589.06;;;10.68;83.38
35694;BME280;21812;55.536;37.664;2023-10-31T08:11:42;99588.19;;;10.68;82.66
35694;BME280;21812;55.536;37.664;2023-10-31T08:14:08;99591.50;;;10.70;82.13
35694;BME280;21812;55.536;37.664;2023-10-31T08:16:34;99597.50;;;10.72;81.80
35694;BME280;21812;55.536;37.664;2023-10-31T08:19:00;99597.28;;;10.73;81.50
35694;BME280;21812;55.536;37.664;2023-10-31T08:21:26;99587.44;;;10.74;81.33
35694;BME280;21812;55.536;37.664;2023-10-31T08:23:54;99591.72;;;10.68;81.50
35694;BME280;21812;55.536;37.664;2023-10-31T08:26:19;99586.56;;;10.67;81.65
35694;BME280;21812;55.536;37.664;2023-10-31T08:28:45;99598.34;;;10.79;82.08
35694;BME280;21812;55.536;37.664;2023-10-31T08:31:11;99592.88;;;10.87;81.84
35694;BME280;21812;55.536;37.664;2023-10-31T08:33:36;99591.47;;;10.91;82.00
35694;BME280;21812;55.536;37.664;2023-10-31T08:36:03;99596.63;;;10.93;81.46
35694;BME280;21812;55.536;37.664;2023-10-31T08:38:28;99595.84;;;10.99;81.57
35694;BME280;21812;55.536;37.664;2023-10-31T08:40:54;99590.06;;;11.02;81.49
35694;BME280;21812;55.536;37.664;2023-10-31T08:43:20;99587.09;;;11.12;81.54
35694;BME280;21812;55.536;37.664;2023-10-31T08:45:46;99590.59;;;11.19;80.81
35694;BME280;21812;55.536;37.664;2023-10-31T08:48:11;99591.22;;;11.21;80.29
35694;BME280;21812;55.536;37.664;2023-10-31T08:50:37;99583.63;;;11.18;80.14
35694;BME280;21812;55.536;37.664;2023-10-31T08:53:03;99592.25;;;11.20;80.33
35694;BME280;21812;55.536;37.664;2023-10-31T08:55:29;99595.38;;;11.24;80.41
35694;BME280;21812;55.536;37.664;2023-10-31T08:57:54;99588.41;;;11.29;80.38
35694;BME280;21812;55.536;37.664;2023-10-31T09:00:20;99592.25;;;11.20;79.99
35694;BME280;21812;55.536;37.664;2023-10-31T09:02:46;99584.41;;;11.12;80.65
35694;BME280;21812;55.536;37.664;2023-10-31T09:05:13;99598.34;;;11.07;80.91
35694;BME280;21812;55.536;37.664;2023-10-31T09:07:38;99601.44;;;11.11;81.03
35694;BME280;21812;55.536;37.664;2023-10-31T09:10:04;99606.00;;;11.17;81.16
35694;BME280;21812;55.536;37.664;2023-10-31T09:12:31;99605.00;;;11.18;80.48
35694;BME280;21812;55.536;37.664;2023-10-31T09:14:56;99601.50;;;11.18;79.96
35694;BME280;21812;55.536;37.664;2023-10-31T09:17:22;99605.63;;;11.20;80.12
35694;BME280;21812;55.536;37.664;2023-10-31T09:19:47;99596.56;;;11.21;79.96
35694;BME280;21812;55.536;37.664;2023-10-31T09:22:13;99600.47;;;11.19;79.67
35694;BME280;21812;55.536;37.664;2023-10-31T09:24:39;99603.81;;;11.27;79.85
35694;BME280;21812;55.536;37.664;2023-10-31T09:27:05;99603.81;;;11.27;79.75
35694;BME280;21812;55.536;37.664;2023-10-31T09:29:31;99608.38;;;11.33;80.09
35694;BME280;21812;55.536;37.664;2023-10-31T09:31:57;99604.06;;;11.39;80.04
35694;BME280;21812;55.536;37.664;2023-10-31T09:34:23;99597.50;;;11.42;79.49
35694;BME280;21812;55.536;37.664;2023-10-31T09:36:48;99592.13;;;11.35;79.47
35694;BME280;21812;55.536;37.664;2023-10-31T09:39:14;99591.50;;;11.33;79.95
35694;BME280;21812;55.536;37.664;2023-10-31T09:41:40;99589.91;;;11.39;80.13
35694;BME280;21812;55.536;37.664;2023-10-31T09:44:06;99597.31;;;11.43;80.54
35694;BME280;21812;55.536;37.664;2023-10-31T09:46:35;99593.75;;;11.29;80.04
35694;BME280;21812;55.536;37.664;2023-10-31T09:49:00;99598.84;;;11.24;80.67
35694;BME280;21812;55.536;37.664;2023-10-31T09:51:27;99560.69;;;11.02;81.15
35694;BME280;21812;55.536;37.664;2023-10-31T09:53:54;99591.91;;;11.30;81.30
35694;BME280;21812;55.536;37.664;2023-10-31T09:56:21;99588.22;;;11.38;81.29
35694;BME280;21812;55.536;37.664;2023-10-31T09:58:47;99584.78;;;11.50;80.89
35694;BME280;21812;55.536;37.664;2023-10-31T10:01:13;99581.13;;;11.65;80.38
35694;BME280;21812;55.536;37.664;2023-10-31T10:03:40;99584.28;;;11.75;79.92
35694;BME280;21812;55.536;37.664;2023-10-31T10:06:06;99598.22;;;11.64;79.20
35694;BME280;21812;55.536;37.664;2023-10-31T10:08:32;99606.78;;;11.46;79.85
35694;BME280;21812;55.536;37.664;2023-10-31T10:11:02;99611.28;;;11.39;80.76
35694;BME280;21812;55.536;37.664;2023-10-31T10:13:28;99620.91;;;11.33;80.64
35694;BME280;21812;55.536;37.664;2023-10-31T10:15:53;99610.38;;;11.25;80.51
35694;BME280;21812;55.536;37.664;2023-10-31T10:18:31;99616.56;;;11.25;81.00
35694;BME280;21812;55.536;37.664;2023-10-31T10:21:00;99583.03;;;10.94;81.14
35694;BME280;21812;55.536;37.664;2023-10-31T10:23:26;99613.94;;;11.04;81.41
35694;BME280;21812;55.536;37.664;2023-10-31T10:25:53;99606.09;;;10.95;81.63
35694;BME280;21812;55.536;37.664;2023-10-31T10:28:20;99605.66;;;10.92;81.90
35694;BME280;21812;55.536;37.664;2023-10-31T10:30:46;99596.41;;;10.94;82.30
35694;BME280;21812;55.536;37.664;2023-10-31T10:33:14;99587.00;;;10.99;82.11
35694;BME280;21812;55.536;37.664;2023-10-31T10:35:40;99591.94;;;11.02;81.73
35694;BME280;21812;55.536;37.664;2023-10-31T10:38:12;99591.38;;;11.06;82.05
35694;BME280;21812;55.536;37.664;2023-10-31T10:40:43;99588.88;;;11.05;81.87
35694;BME280;21812;55.536;37.664;2023-10-31T10:45:38;99601.09;;;10.86;81.55
35694;BME280;21812;55.536;37.664;2023-10-31T10:48:11;99601.88;;;10.80;82.04
35694;BME280;21812;55.536;37.664;2023-10-31T10:50:42;99563.94;;;10.63;81.68
35694;BME280;21812;55.536;37.664;2023-10-31T10:53:22;99537.16;;;10.49;81.32
35694;BME280;21812;55.536;37.664;2023-10-31T10:56:03;99586.22;;;10.76;81.62
35694;BME280;21812;55.536;37.664;2023-10-31T11:01:37;99577.00;;;10.51;81.15
35694;BME280;21812;55.536;37.664;2023-10-31T11:04:05;99605.09;;;10.75;80.54
35694;BME280;21812;55.536;37.664;2023-10-31T11:06:31;99608.19;;;10.72;79.58
35694;BME280;21812;55.536;37.664;2023-10-31T11:08:58;99613.91;;;10.69;79.68
35694;BME280;21812;55.536;37.664;2023-10-31T11:11:24;99617.63;;;10.74;80.24
35694;BME280;21812;55.536;37.664;2023-10-31T11:13:50;99604.72;;;10.78;79.63
35694;BME280;21812;55.536;37.664;2023-10-31T11:16:37;99606.47;;;10.92;79.07
35694;BME280;21812;55.536;37.664;2023-10-31T11:19:07;99598.22;;;10.87;78.46
35694;BME280;21812;55.536;37.664;2023-10-31T11:21:34;99600.75;;;10.95;78.95
35694;BME280;21812;55.536;37.664;2023-10-31T11:24:00;99593.72;;;10.94;78.45
35694;BME280;21812;55.536;37.664;2023-10-31T11:26:27;99602.16;;;10.91;78.13
35694;BME280;21812;55.536;37.664;2023-10-31T11:29:03;99601.47;;;10.83;78.66
35694;BME280;21812;55.536;37.664;2023-10-31T11:31:30;99607.59;;;10.76;79.20
35694;BME280;21812;55.536;37.664;2023-10-31T11:33:56;99592.19;;;10.79;79.28
35694;BME280;21812;55.536;37.664;2023-10-31T11:36:22;99597.34;;;10.80;79.22
35694;BME280;21812;55.536;37.664;2023-10-31T11:38:48;99594.44;;;10.75;79.48
35694;BME280;21812;55.536;37.664;2023-10-31T11:41:14;99595.84;;;10.71;79.73
35694;BME280;21812;55.536;37.664;2023-10-31T11:46:18;99591.50;;;10.70;80.20
35694;BME280;21812;55.536;37.664;2023-10-31T11:48:46;99584.88;;;10.59;79.98
35694;BME280;21812;55.536;37.664;2023-10-31T11:51:18;99590.75;;;10.54;79.92
35694;BME280;21812;55.536;37.664;2023-10-31T11:53:44;99580.22;;;10.46;80.30
35694;BME280;21812;55.536;37.664;2023-10-31T11:56:20;99590.09;;;10.46;80.27
35694;BME280;21812;55.536;37.664;2023-10-31T11:58:56;99591.25;;;10.36;80.47
35694;BME280;21812;55.536;37.664;2023-10-31T12:01:22;99588.78;;;10.20;80.97
35694;BME280;21812;55.536;37.664;2023-10-31T12:03:48;99593.44;;;10.11;81.64
35694;BME280;21812;55.536;37.664;2023-10-31T12:06:15;99590.50;;;10.06;81.57
35694;BME280;21812;55.536;37.664;2023-10-31T12:08:42;99598.66;;;9.98;81.78
35694;BME280;21812;55.536;37.664;2023-10-31T12:13:39;99585.31;;;9.98;82.61
35694;BME280;21812;55.536;37.664;2023-10-31T12:16:07;99593.94;;;10.00;82.01
35694;BME280;21812;55.536;37.664;2023-10-31T12:18:34;99587.44;;;9.88;82.10
35694;BME280;21812;55.536;37.664;2023-10-31T12:21:02;99589.00;;;9.82;82.56
35694;BME280;21812;55.536;37.664;2023-10-31T12:23:28;99588.56;;;9.78;82.75
35694;BME280;21812;55.536;37.664;2023-10-31T12:25:54;99596.38;;;9.80;82.84
35694;BME280;21812;55.536;37.664;2023-10-31T12:28:21;99593.53;;;9.82;82.74
35694;BME280;21812;55.536;37.664;2023-10-31T12:30:48;99595.38;;;9.81;82.72
35694;BME280;21812;55.536;37.664;2023-10-31T12:33:17;99601.72;;;9.80;82.29
35694;BME280;21812;55.536;37.664;2023-10-31T12:35:43;99598.34;;;9.71;82.37
35694;BME280;21812;55.536;37.664;2023-10-31T12:38:13;99598.06;;;9.66;82.54
35694;BME280;21812;55.536;37.664;2023-10-31T12:40:45;99606.25;;;9.65;82.96
35694;BME280;21812;55.536;37.664;2023-10-31T12:43:11;99602.03;;;9.55;82.88
35694;BME280;21812;55.536;37.664;2023-10-31T12:45:37;99605.63;;;9.63;83.15
35694;BME280;21812;55.536;37.664;2023-10-31T12:48:07;99605.06;;;9.67;82.61
35694;BME280;21812;55.536;37.664;2023-10-31T12:50:35;99607.28;;;9.64;82.02
35694;BME280;21812;55.536;37.664;2023-10-31T12:53:08;99607.03;;;9.80;82.59
35694;BME280;21812;55.536;37.664;2023-10-31T12:55:41;99609.75;;;9.65;82.29
35694;BME280;21812;55.536;37.664;2023-10-31T12:58:07;99618.97;;;9.48;82.56
35694;BME280;21812;55.536;37.664;2023-10-31T13:00:40;99619.53;;;9.43;83.31
35694;BME280;21812;55.536;37.664;2023-10-31T13:03:08;99614.09;;;9.51;83.67
35694;BME280;21812;55.536;37.664;2023-10-31T13:05:34;99617.84;;;9.57;83.18